Springvale, Maine
Current Conditions -  °F | °C
As of 3:55 PM on Thursday 27 Nov 2014 (Local Time) from KSFM Reporting Station
Overcast Overcast  
Wind Chill: 34°   Ceiling: 3800
Heat Index: 34°   Visibility: 10mi
Dew Point: 25°   Wind: 3mph
Humidity: 70%   Direction: 310°NW
Pressure: 29.95"   Gusts: NA
Location:  43.47°N, 70.8°W
Report Text: KSFM 272055Z AUTO 31003KT 10SM OVC038 01/M04 A2995 RMK AO1 P0001 60012 52007
Loading
Personal Weather Stations






























Interactive Weather Map New forecast layout! Learn more

10-Day Weather Forecast

Advertisements
Track Severe Weather on mobile